sensor_id;sensor_type;location;lat;lon;timestamp;pressure;altitude;pressure_sealevel;temperature;humidity
76858;BME280;65830;0.000;0.000;2023-01-26T00:02:01;100612.22;;;3.74;60.61
76858;BME280;65830;0.000;0.000;2023-01-26T00:04:27;100616.50;;;3.77;60.22
76858;BME280;65830;0.000;0.000;2023-01-26T00:06:52;100612.22;;;3.74;60.67
76858;BME280;65830;0.000;0.000;2023-01-26T00:09:18;100605.84;;;3.80;60.24
76858;BME280;65830;0.000;0.000;2023-01-26T00:11:43;100597.06;;;3.81;59.38
76858;BME280;65830;0.000;0.000;2023-01-26T00:14:09;100591.16;;;3.76;58.99
76858;BME280;65830;0.000;0.000;2023-01-26T00:16:34;100578.19;;;3.73;59.26
76858;BME280;65830;0.000;0.000;2023-01-26T00:19:00;100567.69;;;3.73;60.13
76858;BME280;65830;0.000;0.000;2023-01-26T00:21:25;100574.94;;;3.68;60.81
76858;BME280;65830;0.000;0.000;2023-01-26T00:23:51;100568.53;;;3.73;60.62
76858;BME280;65830;0.000;0.000;2023-01-26T00:26:18;100559.31;;;3.65;61.09
76858;BME280;65830;0.000;0.000;2023-01-26T00:28:44;100561.22;;;3.80;60.79
76858;BME280;65830;0.000;0.000;2023-01-26T00:31:13;100559.72;;;3.74;61.02
76858;BME280;65830;0.000;0.000;2023-01-26T00:33:39;100562.28;;;3.76;60.76
76858;BME280;65830;0.000;0.000;2023-01-26T00:36:04;100557.34;;;3.70;60.98
76858;BME280;65830;0.000;0.000;2023-01-26T00:38:30;100564.44;;;3.68;60.88
76858;BME280;65830;0.000;0.000;2023-01-26T00:40:55;100565.44;;;3.65;61.17
76858;BME280;65830;0.000;0.000;2023-01-26T00:43:21;100553.94;;;3.68;60.85
76858;BME280;65830;0.000;0.000;2023-01-26T00:45:46;100553.81;;;3.71;60.61
76858;BME280;65830;0.000;0.000;2023-01-26T00:48:12;100566.16;;;3.69;61.11
76858;BME280;65830;0.000;0.000;2023-01-26T00:50:38;100565.22;;;3.70;61.02
76858;BME280;65830;0.000;0.000;2023-01-26T00:53:03;100561.88;;;3.66;61.21
76858;BME280;65830;0.000;0.000;2023-01-26T00:55:29;100558.47;;;3.64;60.63
76858;BME280;65830;0.000;0.000;2023-01-26T00:58:02;100558.63;;;3.61;61.15
76858;BME280;65830;0.000;0.000;2023-01-26T01:00:29;100560.25;;;3.64;60.96
76858;BME280;65830;0.000;0.000;2023-01-26T01:02:54;100558.63;;;3.61;61.11
76858;BME280;65830;0.000;0.000;2023-01-26T01:05:23;100549.69;;;3.65;61.00
76858;BME280;65830;0.000;0.000;2023-01-26T01:07:50;100555.91;;;3.63;60.98
76858;BME280;65830;0.000;0.000;2023-01-26T01:10:15;100556.78;;;3.63;60.80
76858;BME280;65830;0.000;0.000;2023-01-26T01:12:41;100550.66;;;3.63;60.94
76858;BME280;65830;0.000;0.000;2023-01-26T01:15:06;100540.25;;;3.61;61.00
76858;BME280;65830;0.000;0.000;2023-01-26T01:17:33;100538.41;;;3.63;61.62
76858;BME280;65830;0.000;0.000;2023-01-26T01:20:01;100544.38;;;3.67;61.01
76858;BME280;65830;0.000;0.000;2023-01-26T01:22:26;100539.66;;;3.73;60.83
76858;BME280;65830;0.000;0.000;2023-01-26T01:24:52;100539.75;;;3.72;61.20
76858;BME280;65830;0.000;0.000;2023-01-26T01:27:17;100533.88;;;3.67;60.90
76858;BME280;65830;0.000;0.000;2023-01-26T01:29:43;100538.97;;;3.70;60.76
76858;BME280;65830;0.000;0.000;2023-01-26T01:32:08;100538.06;;;3.71;60.62
76858;BME280;65830;0.000;0.000;2023-01-26T01:34:34;100528.22;;;3.74;60.85
76858;BME280;65830;0.000;0.000;2023-01-26T01:36:59;100523.16;;;3.71;60.64
76858;BME280;65830;0.000;0.000;2023-01-26T01:39:25;100518.75;;;3.72;60.39
76858;BME280;65830;0.000;0.000;2023-01-26T01:41:50;100519.28;;;3.78;60.07
76858;BME280;65830;0.000;0.000;2023-01-26T01:44:17;100522.22;;;3.72;60.14
76858;BME280;65830;0.000;0.000;2023-01-26T01:47:03;100516.97;;;3.72;59.49
76858;BME280;65830;0.000;0.000;2023-01-26T01:54:28;100511.41;;;3.61;59.30
76858;BME280;65830;0.000;0.000;2023-01-26T01:56:57;100507.00;;;3.62;59.23
76858;BME280;65830;0.000;0.000;2023-01-26T01:59:23;100500.91;;;3.61;59.04
76858;BME280;65830;0.000;0.000;2023-01-26T02:01:49;100495.56;;;3.63;58.94
76858;BME280;65830;0.000;0.000;2023-01-26T02:04:16;100492.00;;;3.64;59.51
76858;BME280;65830;0.000;0.000;2023-01-26T02:06:49;100489.41;;;3.64;59.83
76858;BME280;65830;0.000;0.000;2023-01-26T02:09:15;100494.63;;;3.64;59.84
76858;BME280;65830;0.000;0.000;2023-01-26T02:12:01;100487.69;;;3.63;60.46
76858;BME280;65830;0.000;0.000;2023-01-26T02:14:27;100489.41;;;3.64;60.63
76858;BME280;65830;0.000;0.000;2023-01-26T02:16:53;100487.78;;;3.61;60.38
76858;BME280;65830;0.000;0.000;2023-01-26T02:19:21;100487.69;;;3.63;60.49
76858;BME280;65830;0.000;0.000;2023-01-26T02:21:51;100473.78;;;3.61;60.29
76858;BME280;65830;0.000;0.000;2023-01-26T02:24:24;100472.94;;;3.60;60.39
76858;BME280;65830;0.000;0.000;2023-01-26T02:26:52;100479.19;;;3.57;60.33
76858;BME280;65830;0.000;0.000;2023-01-26T02:29:19;100477.34;;;3.60;60.00
76858;BME280;65830;0.000;0.000;2023-01-26T02:31:45;100472.22;;;3.56;60.40
76858;BME280;65830;0.000;0.000;2023-01-26T02:34:11;100470.97;;;3.65;60.09
76858;BME280;65830;0.000;0.000;2023-01-26T02:36:37;100471.81;;;3.66;60.17
76858;BME280;65830;0.000;0.000;2023-01-26T02:39:25;100472.72;;;3.65;60.43
76858;BME280;65830;0.000;0.000;2023-01-26T02:41:54;100466.63;;;3.64;59.90
76858;BME280;65830;0.000;0.000;2023-01-26T02:44:38;100458.75;;;3.64;60.05
76858;BME280;65830;0.000;0.000;2023-01-26T02:47:12;100463.63;;;3.72;58.88
76858;BME280;65830;0.000;0.000;2023-01-26T02:49:39;100454.06;;;3.71;59.30
76858;BME280;65830;0.000;0.000;2023-01-26T02:52:19;100455.81;;;3.70;59.38
76858;BME280;65830;0.000;0.000;2023-01-26T02:54:51;100449.19;;;3.63;59.67
76858;BME280;65830;0.000;0.000;2023-01-26T02:57:36;100455.34;;;3.62;59.71
76858;BME280;65830;0.000;0.000;2023-01-26T03:00:06;100446.94;;;3.55;59.83
76858;BME280;65830;0.000;0.000;2023-01-26T03:02:31;100443.84;;;3.65;59.55
76858;BME280;65830;0.000;0.000;2023-01-26T03:04:57;100444.91;;;3.61;59.42
76858;BME280;65830;0.000;0.000;2023-01-26T03:07:23;100446.00;;;3.56;59.66
76858;BME280;65830;0.000;0.000;2023-01-26T03:09:50;100445.22;;;3.54;59.78
76858;BME280;65830;0.000;0.000;2023-01-26T03:12:15;100443.84;;;3.65;59.17
76858;BME280;65830;0.000;0.000;2023-01-26T03:14:41;100441.44;;;3.60;59.02
76858;BME280;65830;0.000;0.000;2023-01-26T03:17:06;100439.66;;;3.61;59.63
76858;BME280;65830;0.000;0.000;2023-01-26T03:19:32;100431.34;;;3.70;59.69
76858;BME280;65830;0.000;0.000;2023-01-26T03:22:16;100425.03;;;3.74;59.37
76858;BME280;65830;0.000;0.000;2023-01-26T03:25:00;100425.56;;;3.63;59.18
76858;BME280;65830;0.000;0.000;2023-01-26T03:27:45;100424.31;;;3.53;59.92
76858;BME280;65830;0.000;0.000;2023-01-26T03:30:13;100422.38;;;3.56;60.09
76858;BME280;65830;0.000;0.000;2023-01-26T03:32:41;100419.31;;;3.66;60.10
76858;BME280;65830;0.000;0.000;2023-01-26T03:35:10;100412.28;;;3.66;60.35
76858;BME280;65830;0.000;0.000;2023-01-26T03:37:47;100404.88;;;3.57;60.69
76858;BME280;65830;0.000;0.000;2023-01-26T03:40:24;100403.69;;;3.63;60.72
76858;BME280;65830;0.000;0.000;2023-01-26T03:43:08;100393.69;;;3.53;60.98
76858;BME280;65830;0.000;0.000;2023-01-26T03:45:53;100394.53;;;3.54;61.03
76858;BME280;65830;0.000;0.000;2023-01-26T03:48:37;100397.06;;;3.55;61.41
76858;BME280;65830;0.000;0.000;2023-01-26T03:51:23;100386.88;;;3.49;61.63
76858;BME280;65830;0.000;0.000;2023-01-26T03:54:07;100379.22;;;3.45;62.09
76858;BME280;65830;0.000;0.000;2023-01-26T03:56:52;100375.25;;;3.55;61.42
76858;BME280;65830;0.000;0.000;2023-01-26T03:59:17;100376.03;;;3.57;61.72
76858;BME280;65830;0.000;0.000;2023-01-26T04:02:11;100367.28;;;3.56;61.54
76858;BME280;65830;0.000;0.000;2023-01-26T04:04:56;100359.56;;;3.71;61.68
76858;BME280;65830;0.000;0.000;2023-01-26T04:07:45;100358.38;;;3.76;61.52
76858;BME280;65830;0.000;0.000;2023-01-26T04:10:29;100362.19;;;3.53;61.48
76858;BME280;65830;0.000;0.000;2023-01-26T04:12:55;100367.19;;;3.58;60.92
76858;BME280;65830;0.000;0.000;2023-01-26T04:15:46;100367.13;;;3.60;60.95
76858;BME280;65830;0.000;0.000;2023-01-26T04:18:30;100379.63;;;3.54;60.89
76858;BME280;65830;0.000;0.000;2023-01-26T04:21:14;100369.75;;;3.60;60.08
76858;BME280;65830;0.000;0.000;2023-01-26T04:23:55;100360.72;;;3.48;60.36
76858;BME280;65830;0.000;0.000;2023-01-26T04:26:22;100354.53;;;3.49;60.85
76858;BME280;65830;0.000;0.000;2023-01-26T04:28:48;100353.00;;;3.45;60.46
76858;BME280;65830;0.000;0.000;2023-01-26T04:31:14;100349.53;;;3.44;60.24
76858;BME280;65830;0.000;0.000;2023-01-26T04:33:41;100342.81;;;3.38;60.33
76858;BME280;65830;0.000;0.000;2023-01-26T04:36:07;100351.44;;;3.41;60.84
76858;BME280;65830;0.000;0.000;2023-01-26T04:38:37;100347.22;;;3.38;60.79
76858;BME280;65830;0.000;0.000;2023-01-26T04:41:03;100342.28;;;3.49;60.04
76858;BME280;65830;0.000;0.000;2023-01-26T04:43:33;100343.44;;;3.61;60.06
76858;BME280;65830;0.000;0.000;2023-01-26T04:46:00;100337.94;;;3.48;60.46
76858;BME280;65830;0.000;0.000;2023-01-26T04:48:28;100339.03;;;3.44;60.45
76858;BME280;65830;0.000;0.000;2023-01-26T04:50:55;100332.69;;;3.48;60.60
76858;BME280;65830;0.000;0.000;2023-01-26T04:53:23;100333.19;;;3.39;60.60
76858;BME280;65830;0.000;0.000;2023-01-26T04:55:50;100337.34;;;3.43;60.72
76858;BME280;65830;0.000;0.000;2023-01-26T04:58:16;100344.34;;;3.43;60.63
76858;BME280;65830;0.000;0.000;2023-01-26T05:00:42;100340.75;;;3.45;60.82
76858;BME280;65830;0.000;0.000;2023-01-26T05:03:08;100346.06;;;3.44;60.85
76858;BME280;65830;0.000;0.000;2023-01-26T05:05:37;100347.06;;;3.41;61.22
76858;BME280;65830;0.000;0.000;2023-01-26T05:08:03;100347.22;;;3.55;60.72
76858;BME280;65830;0.000;0.000;2023-01-26T05:10:31;100346.59;;;3.50;60.95
76858;BME280;65830;0.000;0.000;2023-01-26T05:13:16;100340.88;;;3.42;61.28
76858;BME280;65830;0.000;0.000;2023-01-26T05:16:03;100340.41;;;3.34;62.00
76858;BME280;65830;0.000;0.000;2023-01-26T05:18:49;100344.81;;;3.33;61.63
76858;BME280;65830;0.000;0.000;2023-01-26T05:21:24;100340.19;;;3.38;61.52
76858;BME280;65830;0.000;0.000;2023-01-26T05:23:52;100342.66;;;3.42;61.70
76858;BME280;65830;0.000;0.000;2023-01-26T05:26:33;100336.19;;;3.31;61.80
76858;BME280;65830;0.000;0.000;2023-01-26T05:29:04;100330.22;;;3.28;61.85
76858;BME280;65830;0.000;0.000;2023-01-26T05:31:30;100324.69;;;3.34;61.58
76858;BME280;65830;0.000;0.000;2023-01-26T05:33:56;100324.19;;;3.61;61.11
76858;BME280;65830;0.000;0.000;2023-01-26T05:36:22;100316.97;;;3.48;60.96
76858;BME280;65830;0.000;0.000;2023-01-26T05:38:48;100311.97;;;3.44;61.02
76858;BME280;65830;0.000;0.000;2023-01-26T05:41:18;100316.97;;;3.48;61.46
76858;BME280;65830;0.000;0.000;2023-01-26T05:44:21;100311.72;;;3.48;61.13
76858;BME280;65830;0.000;0.000;2023-01-26T05:46:51;100308.19;;;3.49;60.85
76858;BME280;65830;0.000;0.000;2023-01-26T05:49:17;100319.13;;;3.40;61.47
76858;BME280;65830;0.000;0.000;2023-01-26T05:51:42;100313.75;;;3.43;61.06
76858;BME280;65830;0.000;0.000;2023-01-26T05:54:08;100318.22;;;3.41;61.42
76858;BME280;65830;0.000;0.000;2023-01-26T05:56:34;100318.81;;;3.46;61.46
76858;BME280;65830;0.000;0.000;2023-01-26T05:59:02;100310.56;;;3.54;61.02
76858;BME280;65830;0.000;0.000;2023-01-26T06:01:29;100310.88;;;3.48;61.16
76858;BME280;65830;0.000;0.000;2023-01-26T06:03:58;100313.75;;;3.43;61.75
76858;BME280;65830;0.000;0.000;2023-01-26T06:06:27;100311.19;;;3.42;61.33
76858;BME280;65830;0.000;0.000;2023-01-26T06:09:10;100310.72;;;3.51;61.38
76858;BME280;65830;0.000;0.000;2023-01-26T06:12:13;100303.06;;;3.46;61.28
76858;BME280;65830;0.000;0.000;2023-01-26T06:15:05;100299.69;;;3.44;61.26
76858;BME280;65830;0.000;0.000;2023-01-26T06:17:36;100300.69;;;3.59;61.60
76858;BME280;65830;0.000;0.000;2023-01-26T06:20:05;100294.88;;;3.52;61.37
76858;BME280;65830;0.000;0.000;2023-01-26T06:22:32;100301.38;;;3.45;61.66
76858;BME280;65830;0.000;0.000;2023-01-26T06:24:58;100300.75;;;3.57;61.34
76858;BME280;65830;0.000;0.000;2023-01-26T06:27:23;100304.94;;;3.44;61.64
76858;BME280;65830;0.000;0.000;2023-01-26T06:29:50;100305.56;;;3.49;61.94
76858;BME280;65830;0.000;0.000;2023-01-26T06:32:16;100307.16;;;3.52;61.74
76858;BME280;65830;0.000;0.000;2023-01-26T06:34:43;100306.78;;;3.42;62.18
76858;BME280;65830;0.000;0.000;2023-01-26T06:37:09;100305.63;;;3.48;62.21
76858;BME280;65830;0.000;0.000;2023-01-26T06:39:37;100308.31;;;3.46;62.04
76858;BME280;65830;0.000;0.000;2023-01-26T06:42:06;100291.88;;;3.43;61.96
76858;BME280;65830;0.000;0.000;2023-01-26T06:44:31;100291.66;;;3.47;61.74
76858;BME280;65830;0.000;0.000;2023-01-26T06:46:57;100288.28;;;3.78;61.72
76858;BME280;65830;0.000;0.000;2023-01-26T06:49:22;100284.78;;;3.62;61.72
76858;BME280;65830;0.000;0.000;2023-01-26T06:51:54;100286.88;;;3.55;62.33
76858;BME280;65830;0.000;0.000;2023-01-26T06:54:25;100282.53;;;3.72;62.42
76858;BME280;65830;0.000;0.000;2023-01-26T06:57:07;100281.69;;;3.71;61.97
76858;BME280;65830;0.000;0.000;2023-01-26T06:59:47;100276.44;;;3.71;61.99
76858;BME280;65830;0.000;0.000;2023-01-26T07:02:36;100284.69;;;3.64;62.74
76858;BME280;65830;0.000;0.000;2023-01-26T07:05:01;100279.44;;;3.64;63.22
76858;BME280;65830;0.000;0.000;2023-01-26T07:07:27;100271.66;;;3.62;62.85
76858;BME280;65830;0.000;0.000;2023-01-26T07:09:53;100276.94;;;3.78;62.58
76858;BME280;65830;0.000;0.000;2023-01-26T07:12:19;100270.47;;;3.68;63.08
76858;BME280;65830;0.000;0.000;2023-01-26T07:14:45;100263.56;;;3.67;63.69
76858;BME280;65830;0.000;0.000;2023-01-26T07:17:11;100258.94;;;3.88;62.32
76858;BME280;65830;0.000;0.000;2023-01-26T07:19:36;100253.81;;;3.69;63.17
76858;BME280;65830;0.000;0.000;2023-01-26T07:22:02;100254.81;;;3.66;62.78
76858;BME280;65830;0.000;0.000;2023-01-26T07:24:27;100258.19;;;3.68;62.87
76858;BME280;65830;0.000;0.000;2023-01-26T07:26:53;100249.34;;;3.71;62.93
76858;BME280;65830;0.000;0.000;2023-01-26T07:29:19;100244.09;;;3.71;62.83
76858;BME280;65830;0.000;0.000;2023-01-26T07:31:44;100235.22;;;3.89;62.49
76858;BME280;65830;0.000;0.000;2023-01-26T07:34:10;100236.41;;;3.84;62.40
76858;BME280;65830;0.000;0.000;2023-01-26T07:36:36;100234.28;;;3.90;62.10
76858;BME280;65830;0.000;0.000;2023-01-26T07:39:02;100235.13;;;3.75;62.90
76858;BME280;65830;0.000;0.000;2023-01-26T07:41:27;100234.19;;;3.76;62.36
76858;BME280;65830;0.000;0.000;2023-01-26T07:43:53;100234.72;;;3.83;61.92
76858;BME280;65830;0.000;0.000;2023-01-26T07:46:18;100235.50;;;3.85;62.38
76858;BME280;65830;0.000;0.000;2023-01-26T07:48:43;100237.34;;;3.83;62.71
76858;BME280;65830;0.000;0.000;2023-01-26T07:51:09;100230.53;;;3.78;62.58
76858;BME280;65830;0.000;0.000;2023-01-26T07:53:35;100235.06;;;3.92;62.64
76858;BME280;65830;0.000;0.000;2023-01-26T07:56:14;100242.16;;;3.90;62.54
76858;BME280;65830;0.000;0.000;2023-01-26T07:58:40;100232.88;;;3.85;62.65
76858;BME280;65830;0.000;0.000;2023-01-26T08:03:31;100233.75;;;3.68;64.01
76858;BME280;65830;0.000;0.000;2023-01-26T08:05:57;100233.88;;;3.65;64.27
76858;BME280;65830;0.000;0.000;2023-01-26T08:08:22;100234.38;;;3.73;64.35
76858;BME280;65830;0.000;0.000;2023-01-26T08:10:48;100228.59;;;3.82;64.65
76858;BME280;65830;0.000;0.000;2023-01-26T08:13:13;100225.75;;;3.87;64.02
76858;BME280;65830;0.000;0.000;2023-01-26T08:15:40;100236.16;;;3.88;64.69
76858;BME280;65830;0.000;0.000;2023-01-26T08:18:05;100233.84;;;3.82;64.70
76858;BME280;65830;0.000;0.000;2023-01-26T08:20:31;100234.94;;;3.78;65.00
76858;BME280;65830;0.000;0.000;2023-01-26T08:22:56;100238.53;;;3.77;65.38
76858;BME280;65830;0.000;0.000;2023-01-26T08:25:21;100225.47;;;3.75;65.34
76858;BME280;65830;0.000;0.000;2023-01-26T08:27:47;100229.88;;;3.75;65.66
76858;BME280;65830;0.000;0.000;2023-01-26T08:30:12;100225.81;;;3.85;65.19
76858;BME280;65830;0.000;0.000;2023-01-26T08:32:40;100217.63;;;3.91;65.00
76858;BME280;65830;0.000;0.000;2023-01-26T08:35:05;100220.88;;;4.12;64.41
76858;BME280;65830;0.000;0.000;2023-01-26T08:37:32;100218.47;;;4.08;65.04
76858;BME280;65830;0.000;0.000;2023-01-26T08:39:57;100215.00;;;3.91;65.36
76858;BME280;65830;0.000;0.000;2023-01-26T08:42:23;100212.44;;;3.90;65.11
76858;BME280;65830;0.000;0.000;2023-01-26T08:44:49;100210.22;;;3.82;65.50
76858;BME280;65830;0.000;0.000;2023-01-26T08:47:15;100206.84;;;3.96;65.64
76858;BME280;65830;0.000;0.000;2023-01-26T08:49:40;100195.59;;;4.10;65.44
76858;BME280;65830;0.000;0.000;2023-01-26T08:52:06;100204.25;;;4.12;64.71
76858;BME280;65830;0.000;0.000;2023-01-26T08:54:31;100199.25;;;4.07;65.27
76858;BME280;65830;0.000;0.000;2023-01-26T08:56:56;100198.91;;;4.29;65.13
76858;BME280;65830;0.000;0.000;2023-01-26T08:59:22;100200.06;;;4.40;65.25
76858;BME280;65830;0.000;0.000;2023-01-26T09:01:48;100190.75;;;4.18;65.08
76858;BME280;65830;0.000;0.000;2023-01-26T09:04:14;100191.72;;;4.17;64.85
76858;BME280;65830;0.000;0.000;2023-01-26T09:06:39;100191.22;;;4.10;65.50
76858;BME280;65830;0.000;0.000;2023-01-26T09:09:05;100192.91;;;4.27;65.80
76858;BME280;65830;0.000;0.000;2023-01-26T09:11:34;100193.09;;;4.24;65.04
76858;BME280;65830;0.000;0.000;2023-01-26T09:13:59;100180.59;;;4.12;65.49
76858;BME280;65830;0.000;0.000;2023-01-26T09:16:24;100191.63;;;4.18;66.13
76858;BME280;65830;0.000;0.000;2023-01-26T09:18:51;100189.09;;;4.17;65.34
76858;BME280;65830;0.000;0.000;2023-01-26T09:21:17;100180.59;;;4.12;65.94
76858;BME280;65830;0.000;0.000;2023-01-26T09:23:43;100181.63;;;4.25;65.85
76858;BME280;65830;0.000;0.000;2023-01-26T09:26:08;100180.44;;;4.15;65.66
76858;BME280;65830;0.000;0.000;2023-01-26T09:28:34;100178.25;;;4.23;65.76
76858;BME280;65830;0.000;0.000;2023-01-26T09:31:03;100159.50;;;4.13;66.05
76858;BME280;65830;0.000;0.000;2023-01-26T09:33:29;100164.25;;;4.23;66.17
76858;BME280;65830;0.000;0.000;2023-01-26T09:35:54;100154.59;;;4.23;65.96
76858;BME280;65830;0.000;0.000;2023-01-26T09:38:20;100142.84;;;4.14;66.77
76858;BME280;65830;0.000;0.000;2023-01-26T09:43:16;100138.50;;;4.29;66.43
76858;BME280;65830;0.000;0.000;2023-01-26T09:45:49;100145.69;;;4.26;66.14
76858;BME280;65830;0.000;0.000;2023-01-26T09:48:31;100134.50;;;4.22;66.83
76858;BME280;65830;0.000;0.000;2023-01-26T09:51:01;100118.59;;;4.09;67.02
76858;BME280;65830;0.000;0.000;2023-01-26T09:56:09;100118.59;;;4.25;66.29
76858;BME280;65830;0.000;0.000;2023-01-26T09:58:41;100115.88;;;4.27;66.42
76858;BME280;65830;0.000;0.000;2023-01-26T10:01:36;100104.19;;;4.32;65.99
76858;BME280;65830;0.000;0.000;2023-01-26T10:04:04;100097.41;;;4.28;66.17
76858;BME280;65830;0.000;0.000;2023-01-26T10:06:36;100095.53;;;4.30;66.50
76858;BME280;65830;0.000;0.000;2023-01-26T10:09:27;100091.69;;;4.36;66.58
76858;BME280;65830;0.000;0.000;2023-01-26T10:11:55;100088.81;;;4.41;67.01
76858;BME280;65830;0.000;0.000;2023-01-26T10:16:56;100077.16;;;4.30;66.32
76858;BME280;65830;0.000;0.000;2023-01-26T10:21:58;100074.13;;;3.90;67.23
76858;BME280;65830;0.000;0.000;2023-01-26T10:24:24;100076.59;;;3.93;67.02
76858;BME280;65830;0.000;0.000;2023-01-26T10:26:51;100071.31;;;4.25;66.57
76858;BME280;65830;0.000;0.000;2023-01-26T10:29:17;100070.09;;;4.31;66.48
76858;BME280;65830;0.000;0.000;2023-01-26T10:31:43;100063.66;;;4.36;65.80
76858;BME280;65830;0.000;0.000;2023-01-26T10:34:30;100051.47;;;4.50;65.82
76858;BME280;65830;0.000;0.000;2023-01-26T10:40:01;100036.00;;;4.15;66.48
76858;BME280;65830;0.000;0.000;2023-01-26T10:42:29;100026.41;;;4.14;66.81
76858;BME280;65830;0.000;0.000;2023-01-26T10:44:55;100018.97;;;4.06;67.24
76858;BME280;65830;0.000;0.000;2023-01-26T10:47:21;100014.16;;;4.14;67.14
76858;BME280;65830;0.000;0.000;2023-01-26T10:49:47;100007.09;;;4.15;66.75
76858;BME280;65830;0.000;0.000;2023-01-26T10:52:17;100013.88;;;4.19;66.35
76858;BME280;65830;0.000;0.000;2023-01-26T10:54:43;100007.09;;;4.15;66.57
76858;BME280;65830;0.000;0.000;2023-01-26T10:57:16;99999.69;;;4.07;66.77
76858;BME280;65830;0.000;0.000;2023-01-26T11:02:21;99998.63;;;4.10;66.31
76858;BME280;65830;0.000;0.000;2023-01-26T11:07:33;99992.66;;;4.22;66.54
76858;BME280;65830;0.000;0.000;2023-01-26T11:13:13;99977.56;;;4.11;66.78
76858;BME280;65830;0.000;0.000;2023-01-26T11:15:41;99977.06;;;4.05;66.65
76858;BME280;65830;0.000;0.000;2023-01-26T11:18:13;99988.94;;;3.96;66.96
76858;BME280;65830;0.000;0.000;2023-01-26T11:23:23;99965.50;;;3.93;66.62
76858;BME280;65830;0.000;0.000;2023-01-26T11:31:26;99955.44;;;3.85;67.65
76858;BME280;65830;0.000;0.000;2023-01-26T11:44:18;99909.34;;;4.10;66.81
76858;BME280;65830;0.000;0.000;2023-01-26T11:49:57;99901.41;;;4.11;66.53
76858;BME280;65830;0.000;0.000;2023-01-26T11:57:41;99890.06;;;4.25;67.01
76858;BME280;65830;0.000;0.000;2023-01-26T12:00:16;99888.56;;;4.35;66.04
76858;BME280;65830;0.000;0.000;2023-01-26T12:02:50;99893.06;;;4.19;67.29
76858;BME280;65830;0.000;0.000;2023-01-26T12:05:22;99890.72;;;4.14;67.71
76858;BME280;65830;0.000;0.000;2023-01-26T12:08:03;99875.34;;;4.23;66.77
76858;BME280;65830;0.000;0.000;2023-01-26T12:10:33;99872.72;;;4.23;66.38
76858;BME280;65830;0.000;0.000;2023-01-26T12:13:05;99873.56;;;4.23;66.33
76858;BME280;65830;0.000;0.000;2023-01-26T12:15:36;99861.53;;;4.19;66.84
76858;BME280;65830;0.000;0.000;2023-01-26T12:23:02;99872.88;;;4.05;67.08
76858;BME280;65830;0.000;0.000;2023-01-26T12:25:36;99867.34;;;4.10;67.07
76858;BME280;65830;0.000;0.000;2023-01-26T12:33:15;99863.34;;;4.18;67.25
76858;BME280;65830;0.000;0.000;2023-01-26T12:35:55;99857.22;;;4.18;66.84
76858;BME280;65830;0.000;0.000;2023-01-26T12:38:39;99854.31;;;4.23;66.52
76858;BME280;65830;0.000;0.000;2023-01-26T12:41:16;99854.97;;;4.12;67.21
76858;BME280;65830;0.000;0.000;2023-01-26T12:46:08;99847.75;;;4.01;68.79
76858;BME280;65830;0.000;0.000;2023-01-26T12:48:42;99841.38;;;4.05;68.62
76858;BME280;65830;0.000;0.000;2023-01-26T12:51:13;99840.06;;;4.12;67.03
76858;BME280;65830;0.000;0.000;2023-01-26T12:53:51;99839.56;;;4.20;68.24
76858;BME280;65830;0.000;0.000;2023-01-26T12:56:39;99842.88;;;4.09;67.70
76858;BME280;65830;0.000;0.000;2023-01-26T12:59:19;99835.34;;;4.32;67.67
76858;BME280;65830;0.000;0.000;2023-01-26T13:01:45;99833.09;;;4.26;66.66
76858;BME280;65830;0.000;0.000;2023-01-26T13:04:12;99830.41;;;4.13;68.17
76858;BME280;65830;0.000;0.000;2023-01-26T13:06:38;99827.03;;;4.11;67.99
76858;BME280;65830;0.000;0.000;2023-01-26T13:09:22;99830.88;;;4.05;67.83
76858;BME280;65830;0.000;0.000;2023-01-26T13:16:54;99825.69;;;4.18;67.26
76858;BME280;65830;0.000;0.000;2023-01-26T13:22:17;99804.69;;;4.04;68.25
76858;BME280;65830;0.000;0.000;2023-01-26T13:27:27;99797.44;;;4.36;68.32
76858;BME280;65830;0.000;0.000;2023-01-26T13:29:53;99810.97;;;4.30;67.75
76858;BME280;65830;0.000;0.000;2023-01-26T13:34:46;99793.72;;;4.26;68.11
76858;BME280;65830;0.000;0.000;2023-01-26T13:37:15;99794.47;;;4.13;67.52
76858;BME280;65830;0.000;0.000;2023-01-26T13:39:44;99792.69;;;4.28;68.02
76858;BME280;65830;0.000;0.000;2023-01-26T13:42:55;99785.84;;;4.11;68.05
76858;BME280;65830;0.000;0.000;2023-01-26T13:45:26;99783.53;;;4.07;68.13
76858;BME280;65830;0.000;0.000;2023-01-26T13:47:47;99768.44;;;4.10;67.73
76858;BME280;65830;0.000;0.000;2023-01-26T13:52:46;99759.41;;;4.00;69.04
76858;BME280;65830;0.000;0.000;2023-01-26T13:55:18;99761.94;;;4.16;67.98
76858;BME280;65830;0.000;0.000;2023-01-26T13:57:46;99761.66;;;4.06;68.75
76858;BME280;65830;0.000;0.000;2023-01-26T14:00:14;99753.31;;;4.00;68.84
76858;BME280;65830;0.000;0.000;2023-01-26T14:02:39;99743.03;;;3.96;68.60
76858;BME280;65830;0.000;0.000;2023-01-26T14:05:05;99737.19;;;4.06;67.98
76858;BME280;65830;0.000;0.000;2023-01-26T14:07:38;99727.13;;;4.27;68.57
76858;BME280;65830;0.000;0.000;2023-01-26T14:10:05;99723.50;;;4.15;67.74
76858;BME280;65830;0.000;0.000;2023-01-26T14:12:50;99722.84;;;3.97;69.21
76858;BME280;65830;0.000;0.000;2023-01-26T14:15:26;99723.13;;;3.92;68.74
76858;BME280;65830;0.000;0.000;2023-01-26T14:25:34;99695.59;;;3.85;68.94
76858;BME280;65830;0.000;0.000;2023-01-26T14:28:01;99688.63;;;3.84;69.52
76858;BME280;65830;0.000;0.000;2023-01-26T14:30:27;99682.63;;;3.82;69.38
76858;BME280;65830;0.000;0.000;2023-01-26T14:33:02;99673.94;;;3.82;69.27
76858;BME280;65830;0.000;0.000;2023-01-26T14:35:28;99663.03;;;3.88;68.84
76858;BME280;65830;0.000;0.000;2023-01-26T14:40:45;99660.72;;;3.83;69.10
76858;BME280;65830;0.000;0.000;2023-01-26T14:43:11;99664.19;;;3.84;69.01
76858;BME280;65830;0.000;0.000;2023-01-26T14:45:37;99665.00;;;3.84;69.01
76858;BME280;65830;0.000;0.000;2023-01-26T14:48:05;99657.63;;;3.91;68.26
76858;BME280;65830;0.000;0.000;2023-01-26T14:50:33;99655.16;;;3.88;68.79
76858;BME280;65830;0.000;0.000;2023-01-26T14:52:59;99660.97;;;3.93;68.46
76858;BME280;65830;0.000;0.000;2023-01-26T14:55:26;99658.84;;;3.85;68.44
76858;BME280;65830;0.000;0.000;2023-01-26T14:57:53;99655.38;;;3.70;69.97
76858;BME280;65830;0.000;0.000;2023-01-26T15:02:45;99644.88;;;3.70;69.45
76858;BME280;65830;0.000;0.000;2023-01-26T15:05:13;99645.00;;;3.69;69.46